Terminal Aerodrome Forecast
Issued by NWS Shreveport, LA

Home | Current Version | Previous Version | Text Only | Print | Product List | Glossary On
Versions: 1 2 3 4 5 6 7 8 9 10 11 12 13 14 15 16
482
FTUS44 KSHV 100541
TAFLFK
TAF
KLFK 100541Z 1006/1106 03004KT P6SM FEW060
     FM101500 12006KT P6SM SCT060 SCT250
     FM110000 14007KT P6SM BKN050=

USA.gov is the U.S. government's official web portal to all federal, state and local government web resources and services.